Time;durP1;ratioP1;P1;durP2;ratioP2;P2;SDS_P1;SDS_P2;PMS_P1;PMS_P2;Temp;Humidity;BMP_temperature;BMP_pressure;BME280_temperature;BME280_humidity;BME280_pressure;Samples;Min_cycle;Max_cycle;Signal;HPM_P1;HPM_P2
2022/03/16 00:02:03;;;;;;;16.23;11.90;;;10.80;99.90;;;;;;7390484;19;20127;-73
2022/03/16 00:04:29;;;;;;;16.77;12.40;;;10.70;99.90;;;;;;7391727;19;20740;-74
2022/03/16 00:06:55;;;;;;;16.30;12.10;;;10.70;99.90;;;;;;7394311;19;20142;-70
2022/03/16 00:09:21;;;;;;;17.30;12.87;;;10.70;99.90;;;;;;7390494;19;20715;-73
2022/03/16 00:11:46;;;;;;;18.87;12.33;;;10.60;99.90;;;;;;7391213;19;20133;-71
2022/03/16 00:14:12;;;;;;;14.77;11.50;;;10.70;99.90;;;;;;7390237;19;20685;-73
2022/03/16 00:16:38;;;;;;;15.50;11.80;;;10.70;99.90;;;;;;7391086;19;20566;-73
2022/03/16 00:19:04;;;;;;;17.77;12.30;;;10.70;99.90;;;;;;7391819;19;20147;-71
2022/03/16 00:21:30;;;;;;;15.87;12.17;;;10.70;99.90;;;;;;7391103;19;20141;-73
2022/03/16 00:23:56;;;;;;;18.23;13.43;;;10.80;99.90;;;;;;7389816;19;20134;-73
2022/03/16 00:26:21;;;;;;;16.60;12.40;;;10.90;99.90;;;;;;7389602;19;20130;-76
2022/03/16 00:28:47;;;;;;;17.00;12.60;;;10.90;99.90;;;;;;7387560;19;20883;-74
2022/03/16 00:31:13;;;;;;;18.97;13.43;;;10.90;99.90;;;;;;7388185;19;20174;-72
2022/03/16 00:33:39;;;;;;;17.73;12.30;;;10.80;99.90;;;;;;7393030;19;20131;-73
2022/03/16 00:36:04;;;;;;;18.33;13.53;;;10.80;99.90;;;;;;7391046;19;20163;-72
2022/03/16 00:38:30;;;;;;;21.50;14.40;;;10.80;99.90;;;;;;7392512;19;20134;-72
2022/03/16 00:40:56;;;;;;;19.83;14.20;;;10.80;99.90;;;;;;7389820;19;20131;-75
2022/03/16 00:43:22;;;;;;;20.27;14.07;;;10.70;99.90;;;;;;7396085;19;20147;-74
2022/03/16 00:45:48;;;;;;;21.77;15.03;;;10.70;99.90;;;;;;7389876;19;20166;-72
2022/03/16 00:48:13;;;;;;;20.90;14.13;;;10.70;99.90;;;;;;7389457;19;20335;-74
2022/03/16 00:50:39;;;;;;;18.37;13.83;;;10.70;99.90;;;;;;7391360;19;20130;-73
2022/03/16 00:53:05;;;;;;;20.23;14.70;;;10.70;99.90;;;;;;7390825;19;20129;-73
2022/03/16 00:55:31;;;;;;;19.67;13.73;;;10.70;99.90;;;;;;7389836;19;20155;-72
2022/03/16 00:57:56;;;;;;;21.37;14.87;;;10.70;99.90;;;;;;7391074;19;20127;-72
2022/03/16 01:00:22;;;;;;;21.03;15.40;;;10.70;99.90;;;;;;7391930;19;20134;-75
2022/03/16 01:02:48;;;;;;;21.93;15.87;;;10.70;99.90;;;;;;7393213;19;20201;-74
2022/03/16 01:05:14;;;;;;;25.03;15.80;;;10.60;99.90;;;;;;7391513;19;20123;-74
2022/03/16 01:07:40;;;;;;;24.40;16.93;;;10.60;99.90;;;;;;7388918;19;20126;-73
2022/03/16 01:10:06;;;;;;;23.67;17.07;;;10.50;99.90;;;;;;7386826;19;20135;-74
2022/03/16 01:12:32;;;;;;;23.30;15.17;;;10.50;99.90;;;;;;7389278;19;20138;-72
2022/03/16 01:14:57;;;;;;;25.00;17.37;;;10.50;99.90;;;;;;7388586;19;20134;-74
2022/03/16 01:17:24;;;;;;;26.73;17.73;;;10.50;99.90;;;;;;7389708;19;20148;-71
2022/03/16 01:19:52;;;;;;;28.23;18.40;;;10.50;99.90;;;;;;7389457;19;20194;-74
2022/03/16 01:22:18;;;;;;;26.43;17.07;;;10.50;99.90;;;;;;7391894;19;20168;-72
2022/03/16 01:24:44;;;;;;;25.07;17.73;;;10.30;99.90;;;;;;7394024;19;20181;-73
2022/03/16 01:27:10;;;;;;;27.17;16.60;;;10.20;99.90;;;;;;7391931;19;20134;-74
2022/03/16 01:29:36;;;;;;;24.43;16.20;;;10.10;99.90;;;;;;7388597;19;20735;-72
2022/03/16 01:32:02;;;;;;;25.03;16.73;;;10.30;99.90;;;;;;7391412;19;20131;-75
2022/03/16 01:34:28;;;;;;;29.77;18.30;;;10.40;99.90;;;;;;7391178;19;20133;-74
2022/03/16 01:36:54;;;;;;;26.23;18.37;;;10.40;99.90;;;;;;7387966;19;20466;-74
2022/03/16 01:39:20;;;;;;;32.27;19.40;;;10.50;99.90;;;;;;7391579;19;20199;-71
2022/03/16 01:41:46;;;;;;;31.93;18.83;;;10.50;99.90;;;;;;7390848;19;20134;-72
2022/03/16 01:44:11;;;;;;;29.23;19.20;;;10.40;99.90;;;;;;7388016;19;20712;-71
2022/03/16 01:46:37;;;;;;;31.20;19.70;;;10.50;99.90;;;;;;7388643;19;20669;-73
2022/03/16 01:49:03;;;;;;;30.80;19.83;;;10.50;99.90;;;;;;7386528;19;20149;-72
2022/03/16 01:51:30;;;;;;;27.80;17.53;;;10.30;99.90;;;;;;7387505;19;20135;-74
2022/03/16 01:53:56;;;;;;;27.73;17.23;;;10.30;99.90;;;;;;7388789;19;20137;-72
2022/03/16 01:56:21;;;;;;;25.47;17.37;;;10.40;99.90;;;;;;7389050;19;20150;-73
2022/03/16 01:58:47;;;;;;;26.60;17.53;;;10.20;99.90;;;;;;7387630;19;20127;-72
2022/03/16 02:01:16;;;;;;;24.07;16.97;;;10.10;99.90;;;;;;7388453;19;20130;-71
2022/03/16 02:03:42;;;;;;;26.30;17.30;;;10.30;99.90;;;;;;7386912;19;20135;-72
2022/03/16 02:06:09;;;;;;;28.67;18.30;;;10.50;99.90;;;;;;7389613;19;20150;-75
2022/03/16 02:08:36;;;;;;;29.97;19.60;;;10.60;99.90;;;;;;7385951;19;20149;-71
2022/03/16 02:11:03;;;;;;;28.67;18.87;;;10.60;99.90;;;;;;7387627;19;20139;-72
2022/03/16 02:13:29;;;;;;;29.27;18.53;;;10.40;99.90;;;;;;7386832;19;20205;-72
2022/03/16 02:15:55;;;;;;;33.33;19.03;;;10.20;99.90;;;;;;7388494;19;20224;-74
2022/03/16 02:18:21;;;;;;;30.53;18.93;;;10.40;99.90;;;;;;7385165;19;20163;-73
2022/03/16 02:20:50;;;;;;;29.87;18.87;;;10.40;99.90;;;;;;7389715;19;20691;-74
2022/03/16 02:23:17;;;;;;;28.13;17.90;;;10.60;99.90;;;;;;7388225;19;20578;-75
2022/03/16 02:25:53;;;;;;;30.23;19.00;;;10.70;99.90;;;;;;7385799;19;20119;-73
2022/03/16 02:28:20;;;;;;;32.77;20.03;;;10.60;99.90;;;;;;7384170;19;20485;-74
2022/03/16 02:30:47;;;;;;;32.67;19.47;;;10.50;99.90;;;;;;7389371;19;20158;-74
2022/03/16 02:33:13;;;;;;;27.53;18.87;;;10.40;99.90;;;;;;7386088;19;20134;-73
2022/03/16 02:35:39;;;;;;;30.77;20.30;;;10.40;99.90;;;;;;7390615;19;20131;-73
2022/03/16 02:38:06;;;;;;;30.97;19.30;;;10.30;99.90;;;;;;7383941;19;20218;-74
2022/03/16 02:40:32;;;;;;;31.03;19.23;;;10.30;99.90;;;;;;7387716;19;20154;-72
2022/03/16 02:42:58;;;;;;;34.70;19.90;;;10.30;99.90;;;;;;7391040;19;20214;-74
2022/03/16 02:45:24;;;;;;;32.83;19.80;;;10.20;99.90;;;;;;7386607;19;20677;-74
2022/03/16 02:47:49;;;;;;;33.33;20.43;;;10.30;99.90;;;;;;7385433;19;20139;-72
2022/03/16 02:50:17;;;;;;;30.87;20.00;;;10.30;99.90;;;;;;7383016;19;20123;-72
2022/03/16 02:52:44;;;;;;;35.63;20.27;;;10.40;99.90;;;;;;7386228;19;20131;-74
2022/03/16 02:55:10;;;;;;;35.33;20.60;;;10.40;99.90;;;;;;7386835;19;20633;-74
2022/03/16 02:57:37;;;;;;;34.50;20.57;;;10.40;99.90;;;;;;7390782;19;20624;-74
2022/03/16 03:00:05;;;;;;;31.30;19.33;;;10.40;99.90;;;;;;7390540;19;20932;-72
2022/03/16 03:02:31;;;;;;;31.53;19.13;;;10.30;99.90;;;;;;7385605;19;20223;-72
2022/03/16 03:04:56;;;;;;;36.10;21.73;;;10.40;99.90;;;;;;7389938;19;20162;-73
2022/03/16 03:07:22;;;;;;;39.20;21.33;;;10.40;99.90;;;;;;7387152;19;20139;-75
2022/03/16 03:09:48;;;;;;;32.43;20.20;;;10.30;99.90;;;;;;7384777;19;20127;-73
2022/03/16 03:12:14;;;;;;;31.57;19.73;;;10.40;99.90;;;;;;7385891;19;20138;-72
2022/03/16 03:14:40;;;;;;;32.87;19.93;;;10.30;99.90;;;;;;7384543;19;20148;-73
2022/03/16 03:17:05;;;;;;;38.40;21.30;;;10.40;99.90;;;;;;7384064;19;20171;-74
2022/03/16 03:19:31;;;;;;;34.90;20.13;;;10.40;99.90;;;;;;7386218;19;20130;-74
2022/03/16 03:21:57;;;;;;;35.50;21.17;;;10.30;99.90;;;;;;7387476;19;20138;-73
2022/03/16 03:24:23;;;;;;;36.50;21.13;;;10.30;99.90;;;;;;7387782;19;20569;-72
2022/03/16 03:26:49;;;;;;;34.87;20.93;;;10.30;99.90;;;;;;7383620;19;20230;-73
2022/03/16 03:29:15;;;;;;;36.33;21.10;;;10.20;99.90;;;;;;7388151;19;20150;-72
2022/03/16 03:31:41;;;;;;;37.47;21.47;;;10.20;99.90;;;;;;7392321;19;20150;-74
2022/03/16 03:34:07;;;;;;;32.47;20.07;;;10.30;99.90;;;;;;7393450;19;20645;-72
2022/03/16 03:36:33;;;;;;;33.07;20.10;;;10.10;99.90;;;;;;7392822;19;20153;-73
2022/03/16 03:39:02;;;;;;;35.97;21.77;;;10.20;99.90;;;;;;7397101;19;20135;-74
2022/03/16 03:41:28;;;;;;;36.93;20.70;;;10.30;99.90;;;;;;7392423;19;20134;-73
2022/03/16 03:43:54;;;;;;;35.73;21.43;;;10.30;99.90;;;;;;7391765;19;20142;-72
2022/03/16 03:46:20;;;;;;;32.93;21.03;;;10.30;99.90;;;;;;7390571;19;20183;-73
2022/03/16 03:48:46;;;;;;;36.83;21.20;;;10.30;99.90;;;;;;7390888;19;20182;-73
2022/03/16 03:51:12;;;;;;;34.97;21.37;;;10.20;99.90;;;;;;7391385;19;20654;-72
2022/03/16 03:53:38;;;;;;;32.80;20.60;;;10.20;99.90;;;;;;7392096;19;20521;-72
2022/03/16 03:56:04;;;;;;;36.00;21.70;;;10.30;99.90;;;;;;7395675;19;20471;-72
2022/03/16 03:58:30;;;;;;;36.60;22.40;;;10.30;99.90;;;;;;7390710;19;20679;-74
2022/03/16 04:00:57;;;;;;;32.80;20.70;;;10.20;99.90;;;;;;7392259;19;20532;-73
2022/03/16 04:03:23;;;;;;;36.03;21.23;;;10.10;99.90;;;;;;7393886;19;20131;-72
2022/03/16 04:05:49;;;;;;;39.10;22.70;;;9.80;99.90;;;;;;7390082;19;20143;-72
2022/03/16 04:08:15;;;;;;;33.57;20.43;;;9.70;99.90;;;;;;7389852;19;20141;-72
2022/03/16 04:10:41;;;;;;;33.70;20.63;;;10.00;99.90;;;;;;7392443;19;20145;-74
2022/03/16 04:13:07;;;;;;;34.17;21.27;;;10.10;99.90;;;;;;7390777;19;20148;-75
2022/03/16 04:15:33;;;;;;;32.53;21.50;;;10.20;99.90;;;;;;7389718;19;20195;-72
2022/03/16 04:17:59;;;;;;;33.80;20.80;;;10.20;99.90;;;;;;7391242;19;20134;-72
2022/03/16 04:20:26;;;;;;;33.70;21.67;;;10.20;99.90;;;;;;7389115;19;20130;-74
2022/03/16 04:22:51;;;;;;;33.50;20.27;;;10.20;99.90;;;;;;7390228;19;20139;-74
2022/03/16 04:25:17;;;;;;;32.00;20.77;;;10.40;99.90;;;;;;7391257;19;20131;-75
2022/03/16 04:27:43;;;;;;;33.70;21.23;;;10.40;99.90;;;;;;7388367;19;20142;-73
2022/03/16 04:30:09;;;;;;;35.20;20.90;;;10.40;99.90;;;;;;7392940;19;20150;-74
2022/03/16 04:32:35;;;;;;;36.00;21.77;;;10.40;99.90;;;;;;7392305;19;20131;-74
2022/03/16 04:35:01;;;;;;;36.03;21.23;;;10.30;99.90;;;;;;7391156;19;20127;-72
2022/03/16 04:37:27;;;;;;;36.43;22.60;;;10.30;99.90;;;;;;7388527;19;20142;-74
2022/03/16 04:39:54;;;;;;;35.93;23.17;;;10.20;99.90;;;;;;7391009;19;20635;-75
2022/03/16 04:42:20;;;;;;;34.63;21.30;;;10.20;99.90;;;;;;7389568;19;20131;-73
2022/03/16 04:44:45;;;;;;;34.67;22.20;;;10.10;99.90;;;;;;7391581;19;20153;-74
2022/03/16 04:47:11;;;;;;;33.33;21.40;;;10.20;99.90;;;;;;7388084;19;20148;-73
2022/03/16 04:49:37;;;;;;;38.13;22.40;;;10.10;99.90;;;;;;7389302;19;20139;-72
2022/03/16 04:52:03;;;;;;;37.43;22.17;;;10.10;99.90;;;;;;7388650;19;20123;-73
2022/03/16 04:54:29;;;;;;;35.03;21.13;;;10.00;99.90;;;;;;7390944;19;20141;-73
2022/03/16 04:56:56;;;;;;;37.70;22.50;;;10.10;99.90;;;;;;7387638;19;20127;-72
2022/03/16 04:59:22;;;;;;;38.07;22.43;;;10.10;99.90;;;;;;7388874;19;20123;-72
2022/03/16 05:01:47;;;;;;;37.10;22.20;;;10.10;99.90;;;;;;7390024;19;20551;-73
2022/03/16 05:04:14;;;;;;;34.70;21.77;;;10.20;99.90;;;;;;7393345;19;20591;-72
2022/03/16 05:06:39;;;;;;;36.30;22.70;;;10.20;99.90;;;;;;7387431;19;20171;-74
2022/03/16 05:09:05;;;;;;;37.73;22.57;;;10.20;99.90;;;;;;7387761;19;20138;-73
2022/03/16 05:11:31;;;;;;;36.77;21.80;;;10.10;99.90;;;;;;7388150;19;20146;-72
2022/03/16 05:13:57;;;;;;;39.43;23.53;;;10.10;99.90;;;;;;7389056;19;20620;-73
2022/03/16 05:16:23;;;;;;;36.07;22.97;;;10.20;99.90;;;;;;7387304;19;20134;-71
2022/03/16 05:18:48;;;;;;;40.60;22.33;;;10.20;99.90;;;;;;7387608;19;20135;-71
2022/03/16 05:21:14;;;;;;;37.07;22.63;;;10.20;99.90;;;;;;7387387;19;20711;-73
2022/03/16 05:23:40;;;;;;;38.40;22.60;;;10.20;99.90;;;;;;7389767;19;20138;-73
2022/03/16 05:26:06;;;;;;;38.67;22.13;;;10.20;99.90;;;;;;7389212;19;20127;-74
2022/03/16 05:28:33;;;;;;;40.87;23.43;;;10.20;99.90;;;;;;7385623;19;20177;-73
2022/03/16 05:30:59;;;;;;;40.20;23.50;;;10.30;99.90;;;;;;7389645;19;20159;-74
2022/03/16 05:33:24;;;;;;;35.97;22.20;;;10.30;99.90;;;;;;7389284;19;20610;-74
2022/03/16 05:35:51;;;;;;;37.93;22.70;;;10.20;99.90;;;;;;7386894;19;20198;-73
2022/03/16 05:38:17;;;;;;;38.33;22.77;;;10.20;99.90;;;;;;7389608;19;20127;-74
2022/03/16 05:40:43;;;;;;;39.20;23.40;;;10.30;99.90;;;;;;7388587;19;20126;-72
2022/03/16 05:43:11;;;;;;;36.73;21.87;;;10.20;99.90;;;;;;7389527;19;20232;-75
2022/03/16 05:45:37;;;;;;;37.80;22.57;;;10.20;99.90;;;;;;7387237;19;20134;-74
2022/03/16 05:48:04;;;;;;;40.00;23.23;;;10.20;99.90;;;;;;7388430;19;20137;-73
2022/03/16 05:50:30;;;;;;;36.57;22.93;;;10.30;99.90;;;;;;7384751;19;20147;-71
2022/03/16 05:52:56;;;;;;;37.93;21.93;;;10.30;99.90;;;;;;7383798;19;20525;-73
2022/03/16 05:55:22;;;;;;;40.23;23.70;;;10.30;99.90;;;;;;7386388;19;20142;-73
2022/03/16 05:57:49;;;;;;;35.17;22.00;;;10.30;99.90;;;;;;7385882;19;20454;-72
2022/03/16 06:00:17;;;;;;;39.40;23.53;;;10.40;99.90;;;;;;7388341;19;20162;-74
2022/03/16 06:02:44;;;;;;;35.00;21.90;;;10.40;99.90;;;;;;7388148;19;20130;-73
2022/03/16 06:05:10;;;;;;;37.43;22.07;;;10.30;99.90;;;;;;7385718;19;20158;-72
2022/03/16 06:07:37;;;;;;;38.40;21.93;;;10.40;99.90;;;;;;7387281;19;20533;-73
2022/03/16 06:10:08;;;;;;;39.23;23.23;;;10.30;99.90;;;;;;7384753;19;20130;-74
2022/03/16 06:12:34;;;;;;;37.63;22.57;;;10.20;99.90;;;;;;7385875;19;20170;-72
2022/03/16 06:15:00;;;;;;;37.03;22.13;;;10.30;99.90;;;;;;7388070;19;20641;-73
2022/03/16 06:17:25;;;;;;;41.80;24.03;;;10.30;99.90;;;;;;7388466;19;20549;-74
2022/03/16 06:19:51;;;;;;;39.53;23.80;;;10.30;99.90;;;;;;7388435;19;20122;-74
2022/03/16 06:22:17;;;;;;;36.83;23.37;;;10.30;99.90;;;;;;7386116;19;20119;-73
2022/03/16 06:24:42;;;;;;;36.87;22.23;;;10.30;99.90;;;;;;7388395;19;20127;-74
2022/03/16 06:27:08;;;;;;;41.60;25.17;;;10.30;99.90;;;;;;7385632;19;20134;-73
2022/03/16 06:29:34;;;;;;;41.63;23.57;;;10.30;99.90;;;;;;7387434;19;20501;-75
2022/03/16 06:32:00;;;;;;;38.77;23.23;;;10.40;99.90;;;;;;7389074;19;20865;-72
2022/03/16 06:34:25;;;;;;;39.97;23.07;;;10.50;99.90;;;;;;7385642;19;20269;-73
2022/03/16 06:36:51;;;;;;;39.17;22.67;;;10.40;99.90;;;;;;7384997;19;20592;-73
2022/03/16 06:39:18;;;;;;;37.40;22.60;;;10.50;99.90;;;;;;7386526;19;20571;-73
2022/03/16 06:41:43;;;;;;;39.40;22.53;;;10.50;99.90;;;;;;7384378;19;21094;-72
2022/03/16 06:44:10;;;;;;;36.97;23.00;;;10.60;99.90;;;;;;7386149;19;20177;-73
2022/03/16 06:46:37;;;;;;;38.20;22.93;;;10.60;99.90;;;;;;7385979;19;20157;-74
2022/03/16 06:49:03;;;;;;;40.00;22.33;;;10.60;99.90;;;;;;7388676;19;20138;-73
2022/03/16 06:51:29;;;;;;;39.90;22.60;;;10.50;99.90;;;;;;7387061;19;20152;-73
2022/03/16 06:53:55;;;;;;;38.10;21.83;;;10.60;99.90;;;;;;7385459;19;20221;-73
2022/03/16 06:56:21;;;;;;;38.30;21.80;;;10.60;99.90;;;;;;7384857;19;20198;-74
2022/03/16 06:58:48;;;;;;;39.43;22.43;;;10.60;99.90;;;;;;7389208;19;20139;-75
2022/03/16 07:01:14;;;;;;;38.37;22.67;;;10.50;99.90;;;;;;7386795;19;20167;-74
2022/03/16 07:03:40;;;;;;;38.17;21.40;;;10.40;99.90;;;;;;7386464;19;20142;-73
2022/03/16 07:06:06;;;;;;;40.93;22.50;;;10.40;99.90;;;;;;7386118;19;20155;-72
2022/03/16 07:08:31;;;;;;;38.33;20.50;;;10.60;99.90;;;;;;7389007;19;20134;-75
2022/03/16 07:10:57;;;;;;;37.63;21.70;;;10.60;99.90;;;;;;7389714;19;20573;-74
2022/03/16 07:13:23;;;;;;;35.53;19.00;;;10.70;99.90;;;;;;7387169;19;20146;-74
2022/03/16 07:15:49;;;;;;;32.53;18.40;;;10.60;99.90;;;;;;7387165;19;20130;-74
2022/03/16 07:18:15;;;;;;;33.83;18.87;;;10.60;99.90;;;;;;7386072;19;20143;-74
2022/03/16 07:20:40;;;;;;;32.23;19.23;;;10.70;99.90;;;;;;7386271;19;20175;-74
2022/03/16 07:23:08;;;;;;;32.37;19.53;;;10.60;99.90;;;;;;7388248;19;20143;-73
2022/03/16 07:25:34;;;;;;;30.80;18.77;;;10.50;99.90;;;;;;7386468;19;20138;-75
2022/03/16 07:28:00;;;;;;;34.00;19.17;;;10.40;99.90;;;;;;7381738;19;20142;-74
2022/03/16 07:30:26;;;;;;;31.83;18.43;;;10.50;99.90;;;;;;7385100;19;20154;-74
2022/03/16 07:32:52;;;;;;;34.37;20.00;;;10.50;99.90;;;;;;7386625;19;20131;-71
2022/03/16 07:35:17;;;;;;;32.23;18.53;;;10.60;99.90;;;;;;7388328;19;20650;-73
2022/03/16 07:37:43;;;;;;;28.97;17.83;;;10.60;99.90;;;;;;7383731;19;20674;-74
2022/03/16 07:40:10;;;;;;;25.73;17.27;;;10.60;99.90;;;;;;7384477;19;20488;-73
2022/03/16 07:42:36;;;;;;;31.07;18.23;;;10.50;99.90;;;;;;7384662;19;20728;-74
2022/03/16 07:45:04;;;;;;;26.57;16.70;;;10.60;99.90;;;;;;7385818;19;20646;-75
2022/03/16 07:47:30;;;;;;;25.73;16.17;;;10.60;99.90;;;;;;7387493;19;20146;-73
2022/03/16 07:49:56;;;;;;;30.27;18.20;;;10.60;99.90;;;;;;7386165;19;20623;-73
2022/03/16 07:52:23;;;;;;;28.73;17.90;;;10.60;99.90;;;;;;7386570;19;20126;-73
2022/03/16 07:54:49;;;;;;;26.47;17.07;;;10.60;99.90;;;;;;7384713;19;20130;-72
2022/03/16 07:57:16;;;;;;;26.93;16.40;;;10.60;99.90;;;;;;7384959;19;20249;-72
2022/03/16 07:59:43;;;;;;;31.30;17.97;;;10.60;99.90;;;;;;7384489;19;20217;-74
2022/03/16 08:02:09;;;;;;;26.03;16.87;;;10.60;99.90;;;;;;7384676;19;20634;-74
2022/03/16 08:04:37;;;;;;;28.23;16.50;;;10.60;99.90;;;;;;7386117;19;20467;-73
2022/03/16 08:07:06;;;;;;;26.53;16.83;;;10.60;99.90;;;;;;7385075;19;20138;-74
2022/03/16 08:09:32;;;;;;;27.97;16.60;;;10.50;99.90;;;;;;7384127;19;20135;-72
2022/03/16 08:11:58;;;;;;;24.40;15.63;;;10.40;99.90;;;;;;7386942;19;20160;-72
2022/03/16 08:14:24;;;;;;;25.30;15.87;;;10.50;99.90;;;;;;7385725;19;20613;-73
2022/03/16 08:16:49;;;;;;;26.83;16.27;;;10.50;99.90;;;;;;7388944;19;20474;-73
2022/03/16 08:19:15;;;;;;;26.27;16.83;;;10.50;99.90;;;;;;7393240;19;20152;-73
2022/03/16 08:21:41;;;;;;;25.10;16.10;;;10.50;99.90;;;;;;7391373;19;20213;-73
2022/03/16 08:24:07;;;;;;;27.67;17.00;;;10.30;99.90;;;;;;7391232;19;20154;-73
2022/03/16 08:26:34;;;;;;;25.87;16.50;;;10.50;99.90;;;;;;7390887;19;20627;-73
2022/03/16 08:29:01;;;;;;;25.73;15.93;;;10.60;99.90;;;;;;7389143;19;20146;-75
2022/03/16 08:31:27;;;;;;;25.00;16.07;;;10.60;99.90;;;;;;7389117;19;20146;-73
2022/03/16 08:33:53;;;;;;;23.23;14.97;;;10.60;99.90;;;;;;7394036;19;20601;-73
2022/03/16 08:36:18;;;;;;;26.80;16.43;;;10.70;99.90;;;;;;7389874;19;20181;-75
2022/03/16 08:38:44;;;;;;;26.13;15.60;;;10.70;99.90;;;;;;7394144;19;20134;-75
2022/03/16 08:41:10;;;;;;;24.77;15.47;;;10.70;99.90;;;;;;7392776;19;20603;-73
2022/03/16 08:43:37;;;;;;;23.13;15.10;;;10.70;99.90;;;;;;7391700;19;20138;-73
2022/03/16 08:46:03;;;;;;;27.60;16.03;;;10.80;99.90;;;;;;7391205;19;20138;-74
2022/03/16 08:48:30;;;;;;;23.90;15.33;;;10.80;99.90;;;;;;7392251;19;20219;-73
2022/03/16 08:51:16;;;;;;;24.23;16.43;;;10.70;99.90;;;;;;7387794;19;20147;-73
2022/03/16 08:53:42;;;;;;;28.02;19.38;;;10.70;99.90;;;;;;7388976;19;20400;-75
2022/03/16 08:56:11;;;;;;;24.50;16.37;;;10.80;99.90;;;;;;7393218;19;20131;-74
2022/03/16 08:58:37;;;;;;;22.37;14.90;;;10.80;99.90;;;;;;7390586;19;20178;-73
2022/03/16 09:01:03;;;;;;;25.33;16.00;;;10.80;99.90;;;;;;7391830;19;20186;-74
2022/03/16 09:03:29;;;;;;;22.60;15.03;;;10.80;99.90;;;;;;7388552;19;20150;-73
2022/03/16 09:05:54;;;;;;;24.20;15.40;;;10.80;99.90;;;;;;7393035;19;20441;-73
2022/03/16 09:08:20;;;;;;;24.67;15.40;;;10.90;99.90;;;;;;7391558;19;20139;-74
2022/03/16 09:10:47;;;;;;;23.77;15.63;;;10.90;99.90;;;;;;7390648;19;20150;-74
2022/03/16 09:13:15;;;;;;;23.70;15.90;;;11.00;99.90;;;;;;7389742;19;20142;-73
2022/03/16 09:15:43;;;;;;;25.20;14.87;;;11.00;99.90;;;;;;7389270;19;20183;-74
2022/03/16 09:18:09;;;;;;;25.53;15.73;;;11.00;99.90;;;;;;7389128;19;20134;-73
2022/03/16 09:20:35;;;;;;;23.07;14.60;;;11.00;99.90;;;;;;7389610;19;20135;-74
2022/03/16 09:23:01;;;;;;;25.20;15.27;;;11.10;99.90;;;;;;7389439;19;20590;-74
2022/03/16 09:25:27;;;;;;;22.10;14.20;;;11.10;99.90;;;;;;7389817;19;20181;-74
2022/03/16 09:27:53;;;;;;;25.20;15.57;;;11.20;99.90;;;;;;7389720;19;20202;-73
2022/03/16 09:30:21;;;;;;;24.17;15.77;;;11.30;99.90;;;;;;7387073;19;20170;-73
2022/03/16 09:32:47;;;;;;;24.90;15.40;;;11.30;99.90;;;;;;7387570;19;20130;-74
2022/03/16 09:35:12;;;;;;;23.97;16.10;;;11.30;99.90;;;;;;7389385;19;20246;-73
2022/03/16 09:37:40;;;;;;;21.87;14.80;;;11.40;99.90;;;;;;7389663;19;20135;-73
2022/03/16 09:40:06;;;;;;;23.33;15.13;;;11.40;99.90;;;;;;7388693;19;20180;-73
2022/03/16 09:42:33;;;;;;;24.53;15.17;;;11.40;99.90;;;;;;7387259;19;20135;-73
2022/03/16 09:45:02;;;;;;;22.83;15.43;;;11.30;99.90;;;;;;7387800;19;20495;-74
2022/03/16 09:47:30;;;;;;;22.37;14.43;;;11.40;99.90;;;;;;7389964;19;20165;-74
2022/03/16 09:49:56;;;;;;;21.33;14.33;;;11.50;99.90;;;;;;7388871;19;20560;-74
2022/03/16 09:52:26;;;;;;;28.30;16.47;;;11.70;99.90;;;;;;7388529;19;20187;-72
2022/03/16 09:54:55;;;;;;;21.50;13.60;;;11.90;99.90;;;;;;7388575;19;20149;-75
2022/03/16 09:57:21;;;;;;;23.37;15.40;;;11.90;99.90;;;;;;7387769;19;20150;-75
2022/03/16 09:59:47;;;;;;;23.37;15.20;;;11.60;99.90;;;;;;7385625;19;20142;-73
2022/03/16 10:02:17;;;;;;;23.10;14.10;;;11.70;99.90;;;;;;7384294;19;20159;-75
2022/03/16 10:04:46;;;;;;;21.43;14.50;;;11.70;99.90;;;;;;7386508;19;20156;-74
2022/03/16 10:07:11;;;;;;;22.07;14.53;;;11.70;99.90;;;;;;7384839;19;20487;-75
2022/03/16 10:15:18;;;;;;;25.80;14.73;;;11.70;99.90;;;;;;7384685;19;20160;-74
2022/03/16 10:18:07;;;;;;;21.60;14.03;;;11.80;99.90;;;;;;7383931;19;20186;-76
2022/03/16 10:20:35;;;;;;;20.60;13.83;;;11.70;99.90;;;;;;7386427;19;20556;-75
2022/03/16 10:23:05;;;;;;;21.83;14.13;;;11.90;99.90;;;;;;7385522;19;20156;-73
2022/03/16 10:25:34;;;;;;;23.53;14.80;;;12.00;99.90;;;;;;7386026;19;20176;-75
2022/03/16 10:28:21;;;;;;;22.20;13.53;;;12.00;99.90;;;;;;7386208;19;20154;-73
2022/03/16 10:30:55;;;;;;;21.90;14.13;;;12.10;99.90;;;;;;7385598;19;20182;-75
2022/03/16 10:33:45;;;;;;;21.23;12.93;;;12.30;99.90;;;;;;7389158;19;20205;-73
2022/03/16 10:36:14;;;;;;;19.47;12.50;;;12.30;99.90;;;;;;7386454;19;20161;-73
2022/03/16 10:39:00;;;;;;;20.07;12.87;;;12.30;99.90;;;;;;7385797;19;20214;-74
2022/03/16 10:47:11;;;;;;;18.70;11.67;;;12.60;99.90;;;;;;7389130;19;20142;-75
2022/03/16 10:49:38;;;;;;;16.37;11.77;;;12.70;99.90;;;;;;7385381;19;20163;-73
2022/03/16 10:52:17;;;;;;;17.10;12.20;;;12.70;99.90;;;;;;7388101;19;20165;-74
2022/03/16 10:54:45;;;;;;;18.47;12.23;;;12.50;99.90;;;;;;7387732;19;20159;-74
2022/03/16 10:57:13;;;;;;;20.87;14.27;;;12.70;99.90;;;;;;7384781;19;20146;-73
2022/03/16 10:59:43;;;;;;;17.50;11.67;;;12.60;99.90;;;;;;7388358;19;20139;-74
2022/03/16 11:02:12;;;;;;;18.53;12.53;;;12.60;99.90;;;;;;7385853;19;20175;-75
2022/03/16 11:04:40;;;;;;;18.63;12.97;;;12.70;99.90;;;;;;7388903;19;20190;-74
2022/03/16 11:07:06;;;;;;;18.53;12.50;;;12.70;99.90;;;;;;7386392;19;20700;-73
2022/03/16 11:09:34;;;;;;;20.00;12.67;;;12.80;99.90;;;;;;7390902;19;20539;-74
2022/03/16 11:14:48;;;;;;;15.83;11.23;;;12.90;99.90;;;;;;7388304;19;20559;-76
2022/03/16 11:17:14;;;;;;;18.97;13.57;;;12.90;99.90;;;;;;7387145;19;20131;-73
2022/03/16 11:19:44;;;;;;;19.73;13.13;;;13.00;99.90;;;;;;7386032;19;20135;-73
2022/03/16 11:22:18;;;;;;;15.30;10.63;;;13.00;99.90;;;;;;7389460;19;20271;-73
2022/03/16 11:24:51;;;;;;;16.83;11.30;;;13.10;99.90;;;;;;7386100;19;20225;-73
2022/03/16 11:27:42;;;;;;;16.10;11.03;;;13.10;99.90;;;;;;7370110;19;20147;-73
2022/03/16 11:30:25;;;;;;;20.10;13.37;;;13.20;99.90;;;;;;7382581;19;20154;-74
2022/03/16 11:32:57;;;;;;;16.23;11.57;;;13.30;99.90;;;;;;7382649;19;20697;-75
2022/03/16 11:35:30;;;;;;;17.97;11.97;;;13.30;99.90;;;;;;7384105;19;20214;-74
2022/03/16 11:38:10;;;;;;;17.87;11.27;;;13.30;99.90;;;;;;7384676;19;20222;-74
2022/03/16 11:40:38;;;;;;;14.97;10.93;;;13.40;99.90;;;;;;7386386;19;20139;-74
2022/03/16 11:43:04;;;;;;;13.90;10.13;;;13.30;99.90;;;;;;7386717;19;20138;-73
2022/03/16 11:45:32;;;;;;;16.77;11.70;;;13.10;99.90;;;;;;7387573;19;20135;-74
2022/03/16 11:47:58;;;;;;;14.90;10.97;;;13.30;99.90;;;;;;7386797;19;20657;-76
2022/03/16 11:50:23;;;;;;;15.83;10.57;;;13.30;99.90;;;;;;7384029;19;20134;-75
2022/03/16 11:53:05;;;;;;;15.37;10.27;;;13.20;99.90;;;;;;7389254;19;20130;-75
2022/03/16 11:55:45;;;;;;;16.03;11.00;;;13.20;99.90;;;;;;7388800;19;20603;-75
2022/03/16 11:58:25;;;;;;;12.60;9.83;;;13.40;99.90;;;;;;7393126;19;20151;-75
2022/03/16 12:01:10;;;;;;;15.83;10.43;;;13.30;99.90;;;;;;7391484;19;20269;-76
2022/03/16 12:03:43;;;;;;;14.77;10.73;;;13.30;99.90;;;;;;7395348;19;20210;-75
2022/03/16 12:06:09;;;;;;;16.40;11.80;;;13.40;99.90;;;;;;7389992;19;20135;-75
2022/03/16 12:08:58;;;;;;;18.20;12.13;;;13.60;99.90;;;;;;7388207;19;20143;-75
2022/03/16 12:14:09;;;;;;;14.17;10.50;;;13.70;99.90;;;;;;7391661;19;20139;-74
2022/03/16 12:16:42;;;;;;;15.67;10.27;;;13.50;99.90;;;;;;7392896;19;20160;-75
2022/03/16 12:19:28;;;;;;;15.67;10.93;;;13.60;99.90;;;;;;7392687;19;20138;-76
2022/03/16 12:21:57;;;;;;;14.93;10.10;;;13.60;99.90;;;;;;7392770;19;20146;-74
2022/03/16 12:30:07;;;;;;;12.77;9.83;;;13.60;99.90;;;;;;7389006;19;20158;-76
2022/03/16 12:32:36;;;;;;;16.08;12.10;;;13.40;99.90;;;;;;7391778;19;20412;-75
2022/03/16 12:35:04;;;;;;;13.73;10.40;;;13.40;99.90;;;;;;7391948;19;20174;-75
2022/03/16 12:37:32;;;;;;;14.67;10.30;;;13.40;99.90;;;;;;7387872;19;20181;-75
2022/03/16 12:39:58;;;;;;;17.40;12.60;;;13.20;99.90;;;;;;7392722;19;20528;-75
2022/03/16 12:42:33;;;;;;;15.00;10.47;;;13.30;99.90;;;;;;7394626;19;20146;-76
2022/03/16 12:45:12;;;;;;;12.43;9.40;;;13.30;99.90;;;;;;7391879;19;20195;-75
2022/03/16 12:47:43;;;;;;;14.73;10.07;;;13.30;99.90;;;;;;7390150;19;20141;-77
2022/03/16 12:50:12;;;;;;;17.07;11.23;;;13.20;99.90;;;;;;7393491;19;20717;-74
2022/03/16 12:52:39;;;;;;;14.10;10.87;;;13.20;99.90;;;;;;7391281;19;20138;-75